sensor_id;sensor_type;location;lat;lon;timestamp;pressure;altitude;pressure_sealevel;temperature;humidity
14295;BME280;7231;59.370;18.016;2022-09-27T00:01:08;99862.13;;;11.23;100.00
14295;BME280;7231;59.370;18.016;2022-09-27T00:03:37;99809.38;;;10.93;100.00
14295;BME280;7231;59.370;18.016;2022-09-27T00:06:07;99860.44;;;11.28;100.00
14295;BME280;7231;59.370;18.016;2022-09-27T00:08:36;99870.09;;;11.31;100.00
14295;BME280;7231;59.370;18.016;2022-09-27T00:11:05;99860.47;;;11.33;100.00
14295;BME280;7231;59.370;18.016;2022-09-27T00:13:34;99856.13;;;11.35;100.00
14295;BME280;7231;59.370;18.016;2022-09-27T00:16:04;99835.97;;;11.29;100.00
14295;BME280;7231;59.370;18.016;2022-09-27T00:18:33;99836.94;;;11.41;100.00
14295;BME280;7231;59.370;18.016;2022-09-27T00:21:05;99842.22;;;11.47;100.00
14295;BME280;7231;59.370;18.016;2022-09-27T00:23:34;99850.13;;;11.48;100.00
14295;BME280;7231;59.370;18.016;2022-09-27T00:26:03;99842.22;;;11.47;100.00
14295;BME280;7231;59.370;18.016;2022-09-27T00:28:31;99829.84;;;11.30;100.00
14295;BME280;7231;59.370;18.016;2022-09-27T00:30:59;99860.59;;;11.47;100.00
14295;BME280;7231;59.370;18.016;2022-09-27T00:33:29;99851.78;;;11.38;100.00
14295;BME280;7231;59.370;18.016;2022-09-27T00:36:03;99866.72;;;11.46;100.00
14295;BME280;7231;59.370;18.016;2022-09-27T00:38:31;99823.66;;;11.24;100.00
14295;BME280;7231;59.370;18.016;2022-09-27T00:40:59;99852.69;;;11.41;100.00
14295;BME280;7231;59.370;18.016;2022-09-27T00:43:42;99833.31;;;11.26;100.00
14295;BME280;7231;59.370;18.016;2022-09-27T00:46:12;99814.88;;;11.20;100.00
14295;BME280;7231;59.370;18.016;2022-09-27T00:48:43;99866.75;;;11.49;100.00
14295;BME280;7231;59.370;18.016;2022-09-27T00:51:12;99858.81;;;11.41;100.00
14295;BME280;7231;59.370;18.016;2022-09-27T00:53:43;99877.25;;;11.49;100.00
14295;BME280;7231;59.370;18.016;2022-09-27T00:56:16;99839.41;;;11.25;100.00
14295;BME280;7231;59.370;18.016;2022-09-27T00:58:47;99869.38;;;11.47;100.00
14295;BME280;7231;59.370;18.016;2022-09-27T01:01:18;99873.72;;;11.47;100.00
14295;BME280;7231;59.370;18.016;2022-09-27T01:03:51;99879.84;;;11.46;100.00
14295;BME280;7231;59.370;18.016;2022-09-27T01:06:22;99879.81;;;11.43;100.00
14295;BME280;7231;59.370;18.016;2022-09-27T01:08:50;99872.75;;;11.35;100.00
14295;BME280;7231;59.370;18.016;2022-09-27T01:11:27;99886.81;;;11.41;100.00
14295;BME280;7231;59.370;18.016;2022-09-27T01:14:12;99891.16;;;11.40;100.00
14295;BME280;7231;59.370;18.016;2022-09-27T01:16:49;99888.53;;;11.38;100.00
14295;BME280;7231;59.370;18.016;2022-09-27T01:19:45;99880.69;;;11.40;100.00
14295;BME280;7231;59.370;18.016;2022-09-27T01:22:23;99886.81;;;11.41;100.00
14295;BME280;7231;59.370;18.016;2022-09-27T01:25:17;99881.59;;;11.44;100.00
14295;BME280;7231;59.370;18.016;2022-09-27T01:28:17;99881.59;;;11.45;100.00
14295;BME280;7231;59.370;18.016;2022-09-27T01:30:50;99878.09;;;11.46;100.00
14295;BME280;7231;59.370;18.016;2022-09-27T01:33:28;99850.88;;;11.33;100.00
14295;BME280;7231;59.370;18.016;2022-09-27T01:36:16;99864.91;;;11.38;100.00
14295;BME280;7231;59.370;18.016;2022-09-27T01:38:55;99878.09;;;11.46;100.00
14295;BME280;7231;59.370;18.016;2022-09-27T01:41:33;99878.97;;;11.44;100.00
14295;BME280;7231;59.370;18.016;2022-09-27T01:44:08;99882.44;;;11.43;100.00
14295;BME280;7231;59.370;18.016;2022-09-27T01:46:41;99878.06;;;11.40;100.00
14295;BME280;7231;59.370;18.016;2022-09-27T01:49:15;99863.94;;;11.27;100.00
14295;BME280;7231;59.370;18.016;2022-09-27T01:51:47;99878.81;;;11.30;100.00
14295;BME280;7231;59.370;18.016;2022-09-27T01:54:20;99878.78;;;11.25;100.00
14295;BME280;7231;59.370;18.016;2022-09-27T01:56:52;99887.50;;;11.21;100.00
14295;BME280;7231;59.370;18.016;2022-09-27T01:59:24;99891.81;;;11.16;100.00
14295;BME280;7231;59.370;18.016;2022-09-27T02:02:00;99895.25;;;11.12;100.00
14295;BME280;7231;59.370;18.016;2022-09-27T02:04:31;99895.22;;;11.09;100.00
14295;BME280;7231;59.370;18.016;2022-09-27T02:07:04;99900.44;;;11.06;100.00
14295;BME280;7231;59.370;18.016;2022-09-27T02:09:37;99889.91;;;11.01;100.00
14295;BME280;7231;59.370;18.016;2022-09-27T02:12:10;99898.59;;;10.97;100.00
14295;BME280;7231;59.370;18.016;2022-09-27T02:14:43;99880.03;;;10.81;100.00
14295;BME280;7231;59.370;18.016;2022-09-27T02:17:20;99900.25;;;10.89;100.00
14295;BME280;7231;59.370;18.016;2022-09-27T02:19:55;99895.84;;;10.85;100.00
14295;BME280;7231;59.370;18.016;2022-09-27T02:22:33;99896.69;;;10.83;100.00
14295;BME280;7231;59.370;18.016;2022-09-27T02:25:10;99899.25;;;10.80;100.00
14295;BME280;7231;59.370;18.016;2022-09-27T02:27:48;99902.75;;;10.79;100.00
14295;BME280;7231;59.370;18.016;2022-09-27T02:30:19;99889.56;;;10.72;100.00
14295;BME280;7231;59.370;18.016;2022-09-27T02:32:48;99902.75;;;10.79;100.00
14295;BME280;7231;59.370;18.016;2022-09-27T02:35:18;99905.38;;;10.80;100.00
14295;BME280;7231;59.370;18.016;2022-09-27T02:37:49;99908.91;;;10.82;100.00
14295;BME280;7231;59.370;18.016;2022-09-27T02:40:17;99909.78;;;10.81;100.00
14295;BME280;7231;59.370;18.016;2022-09-27T02:42:46;99876.41;;;10.68;100.00
14295;BME280;7231;59.370;18.016;2022-09-27T02:45:15;99899.28;;;10.81;100.00
14295;BME280;7231;59.370;18.016;2022-09-27T02:48:00;99902.06;;;10.93;100.00
14295;BME280;7231;59.370;18.016;2022-09-27T02:50:56;99912.56;;;10.96;100.00
14295;BME280;7231;59.370;18.016;2022-09-27T02:53:37;99850.16;;;10.66;100.00
14295;BME280;7231;59.370;18.016;2022-09-27T02:56:15;99896.72;;;10.87;100.00
14295;BME280;7231;59.370;18.016;2022-09-27T02:58:55;99892.38;;;10.89;100.00
14295;BME280;7231;59.370;18.016;2022-09-27T03:01:30;99900.31;;;10.94;100.00
14295;BME280;7231;59.370;18.016;2022-09-27T03:04:10;99906.44;;;10.96;100.00
14295;BME280;7231;59.370;18.016;2022-09-27T03:06:44;99905.56;;;10.94;100.00
14295;BME280;7231;59.370;18.016;2022-09-27T03:09:17;99891.44;;;10.83;100.00
14295;BME280;7231;59.370;18.016;2022-09-27T03:11:46;99904.63;;;10.90;100.00
14295;BME280;7231;59.370;18.016;2022-09-27T03:14:14;99907.25;;;10.90;100.00
14295;BME280;7231;59.370;18.016;2022-09-27T03:16:42;99909.00;;;10.90;100.00
14295;BME280;7231;59.370;18.016;2022-09-27T03:19:12;99899.31;;;10.84;100.00
14295;BME280;7231;59.370;18.016;2022-09-27T03:21:40;99904.63;;;10.89;100.00
14295;BME280;7231;59.370;18.016;2022-09-27T03:24:08;99909.94;;;10.95;100.00
14295;BME280;7231;59.370;18.016;2022-09-27T03:26:36;99894.09;;;10.87;100.00
14295;BME280;7231;59.370;18.016;2022-09-27T03:29:04;99904.75;;;10.99;100.00
14295;BME280;7231;59.370;18.016;2022-09-27T03:31:32;99910.00;;;11.01;100.00
14295;BME280;7231;59.370;18.016;2022-09-27T03:34:00;99906.56;;;11.05;100.00
14295;BME280;7231;59.370;18.016;2022-09-27T03:36:29;99907.44;;;11.07;100.00
14295;BME280;7231;59.370;18.016;2022-09-27T03:38:57;99905.75;;;11.11;100.00
14295;BME280;7231;59.370;18.016;2022-09-27T03:41:25;99911.88;;;11.13;100.00
14295;BME280;7231;59.370;18.016;2022-09-27T03:43:53;99910.13;;;11.13;100.00
14295;BME280;7231;59.370;18.016;2022-09-27T03:46:23;99892.56;;;11.06;100.00
14295;BME280;7231;59.370;18.016;2022-09-27T03:48:51;99919.84;;;11.20;100.00
14295;BME280;7231;59.370;18.016;2022-09-27T03:51:19;99891.72;;;11.07;100.00
14295;BME280;7231;59.370;18.016;2022-09-27T03:53:48;99913.75;;;11.23;100.00
14295;BME280;7231;59.370;18.016;2022-09-27T03:56:16;99926.03;;;11.28;100.00
14295;BME280;7231;59.370;18.016;2022-09-27T03:58:44;99926.06;;;11.31;100.00
14295;BME280;7231;59.370;18.016;2022-09-27T04:01:13;99913.84;;;11.32;100.00
14295;BME280;7231;59.370;18.016;2022-09-27T04:03:42;99920.84;;;11.33;100.00
14295;BME280;7231;59.370;18.016;2022-09-27T04:06:11;99919.97;;;11.32;100.00
14295;BME280;7231;59.370;18.016;2022-09-27T04:08:39;99926.94;;;11.30;100.00
14295;BME280;7231;59.370;18.016;2022-09-27T04:11:08;99910.25;;;11.22;100.00
14295;BME280;7231;59.370;18.016;2022-09-27T04:13:36;99920.72;;;11.22;100.00
14295;BME280;7231;59.370;18.016;2022-09-27T04:16:05;99916.31;;;11.17;100.00
14295;BME280;7231;59.370;18.016;2022-09-27T04:18:33;99921.50;;;11.12;100.00
14295;BME280;7231;59.370;18.016;2022-09-27T04:21:01;99917.06;;;11.08;100.00
14295;BME280;7231;59.370;18.016;2022-09-27T04:23:29;99916.16;;;11.03;100.00
14295;BME280;7231;59.370;18.016;2022-09-27T04:25:57;99920.47;;;10.98;100.00
14295;BME280;7231;59.370;18.016;2022-09-27T04:28:27;99868.50;;;10.65;100.00
14295;BME280;7231;59.370;18.016;2022-09-27T04:30:55;99928.19;;;10.87;100.00
14295;BME280;7231;59.370;18.016;2022-09-27T04:33:23;99932.53;;;10.84;100.00
14295;BME280;7231;59.370;18.016;2022-09-27T04:35:51;99908.78;;;10.71;100.00
14295;BME280;7231;59.370;18.016;2022-09-27T04:38:37;99926.38;;;10.80;100.00
14295;BME280;7231;59.370;18.016;2022-09-27T04:41:05;99926.34;;;10.79;100.00
14295;BME280;7231;59.370;18.016;2022-09-27T04:43:34;99935.94;;;10.78;100.00
14295;BME280;7231;59.370;18.016;2022-09-27T04:46:03;99930.66;;;10.75;100.00
14295;BME280;7231;59.370;18.016;2022-09-27T04:48:31;99930.66;;;10.73;100.00
14295;BME280;7231;59.370;18.016;2022-09-27T04:51:00;99932.38;;;10.71;100.00
14295;BME280;7231;59.370;18.016;2022-09-27T04:53:29;99938.50;;;10.72;100.00
14295;BME280;7231;59.370;18.016;2022-09-27T04:55:58;99925.38;;;10.70;100.00
14295;BME280;7231;59.370;18.016;2022-09-27T04:58:32;99942.84;;;10.70;100.00
14295;BME280;7231;59.370;18.016;2022-09-27T05:01:03;99847.84;;;10.20;100.00
14295;BME280;7231;59.370;18.016;2022-09-27T05:03:31;99932.28;;;10.65;100.00
14295;BME280;7231;59.370;18.016;2022-09-27T05:05:59;99938.47;;;10.69;100.00
14295;BME280;7231;59.370;18.016;2022-09-27T05:08:27;99941.06;;;10.69;100.00
14295;BME280;7231;59.370;18.016;2022-09-27T05:10:56;99921.69;;;10.56;100.00
14295;BME280;7231;59.370;18.016;2022-09-27T05:13:24;99948.97;;;10.72;100.00
14295;BME280;7231;59.370;18.016;2022-09-27T05:15:52;99941.06;;;10.67;100.00
14295;BME280;7231;59.370;18.016;2022-09-27T05:18:21;99949.94;;;10.79;100.00
14295;BME280;7231;59.370;18.016;2022-09-27T05:20:49;99949.09;;;10.81;100.00
14295;BME280;7231;59.370;18.016;2022-09-27T05:23:18;99950.03;;;10.85;100.00
14295;BME280;7231;59.370;18.016;2022-09-27T05:25:46;99947.41;;;10.86;100.00
14295;BME280;7231;59.370;18.016;2022-09-27T05:28:14;99949.22;;;10.90;100.00
14295;BME280;7231;59.370;18.016;2022-09-27T05:30:42;99949.28;;;10.96;100.00
14295;BME280;7231;59.370;18.016;2022-09-27T05:33:11;99947.63;;;11.03;100.00
14295;BME280;7231;59.370;18.016;2022-09-27T05:35:40;99937.13;;;11.03;100.00
14295;BME280;7231;59.370;18.016;2022-09-27T05:38:11;99942.50;;;11.14;100.00
14295;BME280;7231;59.370;18.016;2022-09-27T05:40:39;99940.75;;;11.14;100.00
14295;BME280;7231;59.370;18.016;2022-09-27T05:43:10;99938.19;;;11.20;100.00
14295;BME280;7231;59.370;18.016;2022-09-27T05:45:38;99939.13;;;11.25;100.00
14295;BME280;7231;59.370;18.016;2022-09-27T05:48:06;99942.72;;;11.33;100.00
14295;BME280;7231;59.370;18.016;2022-09-27T05:50:34;99924.31;;;11.30;100.00
14295;BME280;7231;59.370;18.016;2022-09-27T05:53:04;99947.22;;;11.47;100.00
14295;BME280;7231;59.370;18.016;2022-09-27T05:55:32;99939.31;;;11.44;100.00
14295;BME280;7231;59.370;18.016;2022-09-27T05:58:01;99935.00;;;11.47;100.00
14295;BME280;7231;59.370;18.016;2022-09-27T06:00:30;99946.41;;;11.52;100.00
14295;BME280;7231;59.370;18.016;2022-09-27T06:02:59;99944.72;;;11.59;100.00
14295;BME280;7231;59.370;18.016;2022-09-27T06:05:29;99949.16;;;11.63;100.00
14295;BME280;7231;59.370;18.016;2022-09-27T06:07:58;99952.69;;;11.68;100.00
14295;BME280;7231;59.370;18.016;2022-09-27T06:10:29;99948.34;;;11.70;100.00
14295;BME280;7231;59.370;18.016;2022-09-27T06:12:58;99960.69;;;11.77;100.00
14295;BME280;7231;59.370;18.016;2022-09-27T06:15:28;99960.72;;;11.82;100.00
14295;BME280;7231;59.370;18.016;2022-09-27T06:18:01;99959.88;;;11.84;100.00
14295;BME280;7231;59.370;18.016;2022-09-27T06:20:29;99960.78;;;11.89;100.00
14295;BME280;7231;59.370;18.016;2022-09-27T06:23:03;99959.06;;;11.93;100.00
14295;BME280;7231;59.370;18.016;2022-09-27T06:25:33;99931.84;;;11.82;100.00
14295;BME280;7231;59.370;18.016;2022-09-27T06:28:01;99972.34;;;12.10;100.00
14295;BME280;7231;59.370;18.016;2022-09-27T06:30:29;99968.84;;;12.11;100.00
14295;BME280;7231;59.370;18.016;2022-09-27T06:32:58;99979.44;;;12.21;100.00
14295;BME280;7231;59.370;18.016;2022-09-27T06:35:27;99974.22;;;12.24;100.00
14295;BME280;7231;59.370;18.016;2022-09-27T06:37:56;99972.50;;;12.31;100.00
14295;BME280;7231;59.370;18.016;2022-09-27T06:40:24;99969.91;;;12.35;100.00
14295;BME280;7231;59.370;18.016;2022-09-27T06:43:00;99984.88;;;12.44;100.00
14295;BME280;7231;59.370;18.016;2022-09-27T06:45:29;99947.97;;;12.30;100.00
14295;BME280;7231;59.370;18.016;2022-09-27T06:47:57;99983.19;;;12.57;100.00
14295;BME280;7231;59.370;18.016;2022-09-27T06:50:28;99977.13;;;12.68;100.00
14295;BME280;7231;59.370;18.016;2022-09-27T06:52:56;99978.94;;;12.80;100.00
14295;BME280;7231;59.370;18.016;2022-09-27T06:55:24;99991.28;;;12.90;100.00
14295;BME280;7231;59.370;18.016;2022-09-27T06:57:54;99992.19;;;13.01;100.00
14295;BME280;7231;59.370;18.016;2022-09-27T07:00:40;99993.19;;;13.22;100.00
14295;BME280;7231;59.370;18.016;2022-09-27T07:03:09;99984.47;;;13.40;100.00
14295;BME280;7231;59.370;18.016;2022-09-27T07:05:39;100005.59;;;13.70;100.00
14295;BME280;7231;59.370;18.016;2022-09-27T07:08:08;99995.97;;;13.93;100.00
14295;BME280;7231;59.370;18.016;2022-09-27T07:10:39;99983.69;;;14.20;100.00
14295;BME280;7231;59.370;18.016;2022-09-27T07:13:09;99988.09;;;14.53;100.00
14295;BME280;7231;59.370;18.016;2022-09-27T07:15:40;99991.53;;;14.87;100.00
14295;BME280;7231;59.370;18.016;2022-09-27T07:18:08;99995.81;;;15.15;100.00
14295;BME280;7231;59.370;18.016;2022-09-27T07:20:36;99998.34;;;15.40;100.00
14295;BME280;7231;59.370;18.016;2022-09-27T07:23:04;99992.13;;;15.51;99.14
14295;BME280;7231;59.370;18.016;2022-09-27T07:25:33;99992.06;;;15.61;97.26
14295;BME280;7231;59.370;18.016;2022-09-27T07:28:02;99985.91;;;15.62;96.05
14295;BME280;7231;59.370;18.016;2022-09-27T07:30:33;99997.34;;;15.65;94.74
14295;BME280;7231;59.370;18.016;2022-09-27T07:33:03;99998.22;;;15.63;93.82
14295;BME280;7231;59.370;18.016;2022-09-27T07:35:32;99998.28;;;15.60;92.95
14295;BME280;7231;59.370;18.016;2022-09-27T07:38:00;99952.66;;;15.25;92.00
14295;BME280;7231;59.370;18.016;2022-09-27T07:40:29;100008.03;;;15.44;91.49
14295;BME280;7231;59.370;18.016;2022-09-27T07:42:57;100006.28;;;15.40;91.29
14295;BME280;7231;59.370;18.016;2022-09-27T07:45:25;100003.66;;;15.34;90.39
14295;BME280;7231;59.370;18.016;2022-09-27T07:47:55;100005.47;;;15.21;89.68
14295;BME280;7231;59.370;18.016;2022-09-27T07:50:23;99998.50;;;15.08;89.56
14295;BME280;7231;59.370;18.016;2022-09-27T07:52:51;100001.16;;;15.03;89.14
14295;BME280;7231;59.370;18.016;2022-09-27T07:55:19;100008.22;;;14.93;89.22
14295;BME280;7231;59.370;18.016;2022-09-27T07:57:48;100002.97;;;14.86;89.44
14295;BME280;7231;59.370;18.016;2022-09-27T08:00:17;99974.88;;;14.60;89.68
14295;BME280;7231;59.370;18.016;2022-09-27T08:02:45;99999.50;;;14.69;89.78
14295;BME280;7231;59.370;18.016;2022-09-27T08:05:15;100016.19;;;14.71;89.70
14295;BME280;7231;59.370;18.016;2022-09-27T08:07:43;100017.09;;;14.64;89.31
14295;BME280;7231;59.370;18.016;2022-09-27T08:10:11;100012.69;;;14.55;89.42
14295;BME280;7231;59.370;18.016;2022-09-27T08:12:39;100015.34;;;14.52;89.54
14295;BME280;7231;59.370;18.016;2022-09-27T08:15:08;100031.16;;;14.52;89.73
14295;BME280;7231;59.370;18.016;2022-09-27T08:17:35;100030.28;;;14.48;90.02
14295;BME280;7231;59.370;18.016;2022-09-27T08:20:04;100035.56;;;14.45;90.26
14295;BME280;7231;59.370;18.016;2022-09-27T08:22:39;100032.06;;;14.42;90.09
14295;BME280;7231;59.370;18.016;2022-09-27T08:25:07;100031.16;;;14.37;90.20
14295;BME280;7231;59.370;18.016;2022-09-27T08:27:35;100031.16;;;14.32;90.46
14295;BME280;7231;59.370;18.016;2022-09-27T08:30:04;100025.00;;;14.21;90.69
14295;BME280;7231;59.370;18.016;2022-09-27T08:32:32;100028.50;;;14.23;90.68
14295;BME280;7231;59.370;18.016;2022-09-27T08:35:00;100026.75;;;14.20;90.87
14295;BME280;7231;59.370;18.016;2022-09-27T08:37:28;100014.44;;;14.16;90.89
14295;BME280;7231;59.370;18.016;2022-09-27T08:39:57;100008.28;;;14.05;91.37
14295;BME280;7231;59.370;18.016;2022-09-27T08:42:32;100003.00;;;14.04;91.87
14295;BME280;7231;59.370;18.016;2022-09-27T08:45:11;100015.31;;;14.15;91.96
14295;BME280;7231;59.370;18.016;2022-09-27T08:47:43;100010.94;;;14.16;91.96
14295;BME280;7231;59.370;18.016;2022-09-27T08:50:23;99981.94;;;14.07;92.32
14295;BME280;7231;59.370;18.016;2022-09-27T08:52:55;100006.53;;;14.27;92.21
14295;BME280;7231;59.370;18.016;2022-09-27T08:55:31;100024.16;;;14.42;92.85
14295;BME280;7231;59.370;18.016;2022-09-27T08:58:11;100026.78;;;14.49;92.93
14295;BME280;7231;59.370;18.016;2022-09-27T09:00:40;100030.28;;;14.48;92.84
14295;BME280;7231;59.370;18.016;2022-09-27T09:03:16;100033.81;;;14.58;92.75
14295;BME280;7231;59.370;18.016;2022-09-27T09:05:51;100015.34;;;14.50;92.93
14295;BME280;7231;59.370;18.016;2022-09-27T09:08:30;100035.56;;;14.64;92.71
14295;BME280;7231;59.370;18.016;2022-09-27T09:11:15;100039.94;;;14.66;92.46
14295;BME280;7231;59.370;18.016;2022-09-27T09:14:17;100042.59;;;14.63;92.08
14295;BME280;7231;59.370;18.016;2022-09-27T09:16:55;100047.88;;;14.58;92.08
14295;BME280;7231;59.370;18.016;2022-09-27T09:19:46;100048.75;;;14.45;91.98
14295;BME280;7231;59.370;18.016;2022-09-27T09:22:32;100056.63;;;14.38;92.12
14295;BME280;7231;59.370;18.016;2022-09-27T09:25:21;100051.38;;;14.24;92.82
14295;BME280;7231;59.370;18.016;2022-09-27T09:28:02;100049.59;;;14.30;93.18
14295;BME280;7231;59.370;18.016;2022-09-27T09:30:40;100039.06;;;14.27;93.51
14295;BME280;7231;59.370;18.016;2022-09-27T09:33:17;100051.41;;;14.44;93.36
14295;BME280;7231;59.370;18.016;2022-09-27T09:35:52;100045.25;;;14.52;93.16
14295;BME280;7231;59.370;18.016;2022-09-27T09:38:31;100035.56;;;14.59;92.90
14295;BME280;7231;59.370;18.016;2022-09-27T09:41:04;100028.50;;;14.72;92.91
14295;BME280;7231;59.370;18.016;2022-09-27T09:43:39;100043.44;;;14.83;92.63
14295;BME280;7231;59.370;18.016;2022-09-27T09:46:13;100042.56;;;14.89;92.16
14295;BME280;7231;59.370;18.016;2022-09-27T09:48:46;100040.78;;;14.97;91.99
14295;BME280;7231;59.370;18.016;2022-09-27T09:51:19;100034.56;;;15.10;92.53
14295;BME280;7231;59.370;18.016;2022-09-27T09:53:53;100047.72;;;15.24;91.33
14295;BME280;7231;59.370;18.016;2022-09-27T09:56:25;100019.66;;;14.94;90.04
14295;BME280;7231;59.370;18.016;2022-09-27T09:58:57;100052.22;;;14.91;90.23
14295;BME280;7231;59.370;18.016;2022-09-27T10:01:31;100052.25;;;14.78;90.44
14295;BME280;7231;59.370;18.016;2022-09-27T10:04:01;100048.75;;;14.65;90.67
14295;BME280;7231;59.370;18.016;2022-09-27T10:06:29;100056.66;;;14.54;90.64
14295;BME280;7231;59.370;18.016;2022-09-27T10:08:58;100032.03;;;14.23;91.04
14295;BME280;7231;59.370;18.016;2022-09-27T10:11:31;100060.16;;;14.24;91.61
14295;BME280;7231;59.370;18.016;2022-09-27T10:14:09;100061.88;;;14.09;92.92
14295;BME280;7231;59.370;18.016;2022-09-27T10:16:38;100056.59;;;13.93;93.42
14295;BME280;7231;59.370;18.016;2022-09-27T10:19:08;100038.13;;;13.78;93.96
14295;BME280;7231;59.370;18.016;2022-09-27T10:21:41;100054.81;;;13.77;95.03
14295;BME280;7231;59.370;18.016;2022-09-27T10:24:11;100053.91;;;13.71;95.79
14295;BME280;7231;59.370;18.016;2022-09-27T10:26:45;100051.25;;;13.66;96.66
14295;BME280;7231;59.370;18.016;2022-09-27T10:29:28;100057.41;;;13.62;97.81
14295;BME280;7231;59.370;18.016;2022-09-27T10:32:04;100059.16;;;13.63;98.08
14295;BME280;7231;59.370;18.016;2022-09-27T10:34:45;100002.03;;;13.44;98.88
14295;BME280;7231;59.370;18.016;2022-09-27T10:37:15;100039.88;;;13.76;99.57
14295;BME280;7231;59.370;18.016;2022-09-27T10:39:45;100046.06;;;13.93;100.00
14295;BME280;7231;59.370;18.016;2022-09-27T10:42:30;100042.56;;;14.13;100.00
14295;BME280;7231;59.370;18.016;2022-09-27T10:45:21;100032.91;;;14.41;100.00
14295;BME280;7231;59.370;18.016;2022-09-27T10:47:53;100041.69;;;14.72;100.00
14295;BME280;7231;59.370;18.016;2022-09-27T10:50:23;100044.28;;;14.94;100.00
14295;BME280;7231;59.370;18.016;2022-09-27T10:53:14;100024.91;;;15.08;100.00
14295;BME280;7231;59.370;18.016;2022-09-27T10:55:46;100032.81;;;15.12;99.29
14295;BME280;7231;59.370;18.016;2022-09-27T10:58:17;100031.94;;;15.10;98.85
14295;BME280;7231;59.370;18.016;2022-09-27T11:00:55;100010.88;;;14.92;98.49
14295;BME280;7231;59.370;18.016;2022-09-27T11:03:24;100031.09;;;15.01;98.38
14295;BME280;7231;59.370;18.016;2022-09-27T11:05:55;100040.78;;;14.94;98.06
14295;BME280;7231;59.370;18.016;2022-09-27T11:08:30;100038.16;;;14.85;98.24
14295;BME280;7231;59.370;18.016;2022-09-27T11:11:14;100003.91;;;14.56;98.69
14295;BME280;7231;59.370;18.016;2022-09-27T11:13:56;99995.13;;;14.49;98.95
14295;BME280;7231;59.370;18.016;2022-09-27T11:16:37;100036.44;;;14.67;99.04
14295;BME280;7231;59.370;18.016;2022-09-27T11:19:22;100036.44;;;14.63;99.28
14295;BME280;7231;59.370;18.016;2022-09-27T11:21:58;100029.41;;;14.58;99.42
14295;BME280;7231;59.370;18.016;2022-09-27T11:24:42;100030.28;;;14.57;99.89
14295;BME280;7231;59.370;18.016;2022-09-27T11:27:21;100030.28;;;14.62;100.00
14295;BME280;7231;59.370;18.016;2022-09-27T11:30:03;100037.31;;;14.61;100.00
14295;BME280;7231;59.370;18.016;2022-09-27T11:32:45;100045.22;;;14.65;100.00
14295;BME280;7231;59.370;18.016;2022-09-27T11:35:28;100047.88;;;14.69;100.00
14295;BME280;7231;59.370;18.016;2022-09-27T11:38:10;100031.13;;;14.75;100.00
14295;BME280;7231;59.370;18.016;2022-09-27T11:41:13;100039.88;;;15.01;100.00
14295;BME280;7231;59.370;18.016;2022-09-27T11:43:55;100047.78;;;15.09;100.00
14295;BME280;7231;59.370;18.016;2022-09-27T11:46:31;100040.72;;;15.11;100.00
14295;BME280;7231;59.370;18.016;2022-09-27T11:52:27;100032.69;;;15.43;100.00
14295;BME280;7231;59.370;18.016;2022-09-27T11:55:14;100020.19;;;15.74;99.87
14295;BME280;7231;59.370;18.016;2022-09-27T11:57:55;100030.41;;;16.24;98.74
14295;BME280;7231;59.370;18.016;2022-09-27T12:00:37;100033.63;;;16.60;96.55
14295;BME280;7231;59.370;18.016;2022-09-27T12:03:25;100029.09;;;16.75;94.64
14295;BME280;7231;59.370;18.016;2022-09-27T12:06:06;100030.66;;;16.95;93.45
14295;BME280;7231;59.370;18.016;2022-09-27T12:08:48;100042.97;;;17.00;91.85
14295;BME280;7231;59.370;18.016;2022-09-27T12:11:21;100040.44;;;16.90;91.34
14295;BME280;7231;59.370;18.016;2022-09-27T12:13:54;100030.00;;;16.74;91.43
14295;BME280;7231;59.370;18.016;2022-09-27T12:16:25;100042.38;;;16.71;90.88
14295;BME280;7231;59.370;18.016;2022-09-27T12:18:55;100042.44;;;16.63;90.96
14295;BME280;7231;59.370;18.016;2022-09-27T12:21:25;100038.94;;;16.56;90.96
14295;BME280;7231;59.370;18.016;2022-09-27T12:23:55;100034.59;;;16.51;90.57
14295;BME280;7231;59.370;18.016;2022-09-27T12:26:27;100035.38;;;16.61;90.53
14295;BME280;7231;59.370;18.016;2022-09-27T12:29:01;100028.31;;;16.61;90.30
14295;BME280;7231;59.370;18.016;2022-09-27T12:31:35;100034.47;;;16.69;89.70
14295;BME280;7231;59.370;18.016;2022-09-27T12:34:12;99987.09;;;16.36;89.35
14295;BME280;7231;59.370;18.016;2022-09-27T12:36:50;100020.50;;;16.47;89.68
14295;BME280;7231;59.370;18.016;2022-09-27T12:39:21;100025.91;;;16.37;89.87
14295;BME280;7231;59.370;18.016;2022-09-27T12:41:55;100032.13;;;16.31;90.01
14295;BME280;7231;59.370;18.016;2022-09-27T12:44:31;100043.63;;;16.26;90.01
14295;BME280;7231;59.370;18.016;2022-09-27T12:47:08;100033.97;;;16.18;90.40
14295;BME280;7231;59.370;18.016;2022-09-27T12:49:49;100040.13;;;16.23;90.57
14295;BME280;7231;59.370;18.016;2022-09-27T12:52:30;100041.84;;;16.29;90.60
14295;BME280;7231;59.370;18.016;2022-09-27T12:58:16;100047.22;;;16.18;90.04
14295;BME280;7231;59.370;18.016;2022-09-27T13:00:52;100054.28;;;16.16;90.19
14295;BME280;7231;59.370;18.016;2022-09-27T13:03:39;100049.88;;;16.14;90.18
14295;BME280;7231;59.370;18.016;2022-09-27T13:09:30;100042.03;;;16.03;90.35
14295;BME280;7231;59.370;18.016;2022-09-27T13:12:04;100044.66;;;16.06;90.21
14295;BME280;7231;59.370;18.016;2022-09-27T13:14:41;100050.84;;;16.02;90.01
14295;BME280;7231;59.370;18.016;2022-09-27T13:26:49;100062.97;;;16.32;89.60
14295;BME280;7231;59.370;18.016;2022-09-27T13:29:26;100021.56;;;16.28;89.06
14295;BME280;7231;59.370;18.016;2022-09-27T13:32:07;100054.81;;;16.60;88.61
14295;BME280;7231;59.370;18.016;2022-09-27T13:34:40;100053.91;;;16.65;88.35
14295;BME280;7231;59.370;18.016;2022-09-27T13:37:44;100050.22;;;16.83;87.85
14295;BME280;7231;59.370;18.016;2022-09-27T13:40:22;100049.16;;;16.99;87.31